Time;durP1;ratioP1;P1;durP2;ratioP2;P2;SDS_P1;SDS_P2;PMS_P1;PMS_P2;Temp;Humidity;BMP_temperature;BMP_pressure;BME280_temperature;BME280_humidity;BME280_pressure;Samples;Min_cycle;Max_cycle;Signal;HPM_P1;HPM_P2
2022/01/10 00:02:10;;;;;;;;;;;;;;;0.56;82.03;100971.50;5094152;28;19920;-82
2022/01/10 00:04:35;;;;;;;;;;;;;;;0.63;78.43;100975.47;5094051;28;20423;-81
2022/01/10 00:07:00;;;;;;;;;;;;;;;0.69;75.77;100976.84;5094134;28;19927;-82
2022/01/10 00:09:26;;;;;;;;;;;;;;;0.71;74.18;100993.44;5094103;28;19928;-82
2022/01/10 00:11:53;;;;;;;;;;;;;;;0.78;72.68;100992.22;5093901;28;19928;-82
2022/01/10 00:14:18;;;;;;;;;;;;;;;0.80;71.93;100997.50;5093895;28;19927;-81
2022/01/10 00:16:44;;;;;;;;;;;;;;;0.79;71.39;101006.06;5093898;28;19920;-82
2022/01/10 00:19:09;;;;;;;;;;;;;;;0.83;71.00;101021.09;5093816;28;19965;-82
2022/01/10 00:21:34;;;;;;;;;;;;;;;0.79;70.73;101019.91;5093672;28;20347;-81
2022/01/10 00:24:01;;;;;;;;;;;;;;;0.76;70.53;101016.19;5094010;28;19920;-82
2022/01/10 00:26:27;;;;;;;;;;;;;;;0.72;70.29;101020.25;5093853;28;19977;-82
2022/01/10 00:28:52;;;;;;;;;;;;;;;0.69;70.08;101020.91;5083686;28;20379;-82
2022/01/10 00:31:18;;;;;;;;;;;;;;;0.66;69.96;101023.25;5073991;28;19923;-82
2022/01/10 00:33:44;;;;;;;;;;;;;;;0.62;69.83;101021.22;5073730;28;19927;-82
2022/01/10 00:36:09;;;;;;;;;;;;;;;0.62;69.68;101023.81;5074181;28;20007;-81
2022/01/10 00:38:35;;;;;;;;;;;;;;;0.63;69.51;101023.00;5073649;28;19956;-81
2022/01/10 00:41:00;;;;;;;;;;;;;;;0.64;69.35;101022.25;5073968;28;19952;-82
2022/01/10 00:43:35;;;;;;;;;;;;;;;0.69;69.16;101023.50;5073352;28;19929;-81
2022/01/10 00:46:02;;;;;;;;;;;;;;;0.75;68.95;101025.66;5074224;28;20341;-81
2022/01/10 00:48:27;;;;;;;;;;;;;;;0.78;68.77;101037.94;5072826;28;19987;-82
2022/01/10 00:50:53;;;;;;;;;;;;;;;0.80;68.59;101042.47;5074123;28;19917;-82
2022/01/10 00:53:23;;;;;;;;;;;;;;;0.86;68.40;101055.91;5073510;28;19956;-80
2022/01/10 00:55:49;;;;;;;;;;;;;;;0.87;68.24;101059.41;5073945;28;20307;-81
2022/01/10 00:58:14;;;;;;;;;;;;;;;0.88;68.09;101051.75;5073689;28;19920;-81
2022/01/10 01:00:39;;;;;;;;;;;;;;;0.85;68.01;101066.16;5074722;28;20241;-81
2022/01/10 01:03:14;;;;;;;;;;;;;;;0.81;67.93;101083.19;5074770;28;19966;-81
2022/01/10 01:05:42;;;;;;;;;;;;;;;0.76;67.89;101074.13;5077054;28;19920;-82
2022/01/10 01:08:09;;;;;;;;;;;;;;;0.71;67.84;101083.22;5086930;28;19920;-81
2022/01/10 01:13:18;;;;;;;;;;;;;;;0.71;67.62;101086.75;5090126;28;19947;-80
2022/01/10 01:16:41;;;;;;;;;;;;;;;0.75;67.47;101090.47;5082545;28;19921;-82
2022/01/10 01:24:06;;;;;;;;;;;;;;;0.94;67.08;101103.19;5105763;28;19968;-82
2022/01/10 01:26:37;;;;;;;;;;;;;;;0.99;66.99;101091.47;5092195;28;19988;-82
2022/01/10 01:29:06;;;;;;;;;;;;;;;1.05;66.89;101106.63;5092080;28;19920;-81
2022/01/10 01:31:31;;;;;;;;;;;;;;;1.08;66.82;101099.97;5093245;28;19927;-80
2022/01/10 01:34:00;;;;;;;;;;;;;;;1.16;66.73;101110.94;5093854;28;20010;-84
2022/01/10 01:36:27;;;;;;;;;;;;;;;1.27;66.65;101111.78;5083208;28;19927;-81
2022/01/10 01:38:53;;;;;;;;;;;;;;;1.24;66.63;101112.47;5084702;28;19973;-82
2022/01/10 01:43:49;;;;;;;;;;;;;;;1.14;66.64;101129.78;5098137;28;20032;-81
2022/01/10 01:46:15;;;;;;;;;;;;;;;1.12;66.63;101136.53;5080108;28;19920;-81
2022/01/10 01:48:40;;;;;;;;;;;;;;;1.03;66.63;101132.44;5079823;28;20272;-81
2022/01/10 01:51:05;;;;;;;;;;;;;;;0.94;66.65;101134.31;5079833;28;19920;-81
2022/01/10 01:53:36;;;;;;;;;;;;;;;0.88;66.65;101133.81;5079600;28;19924;-80
2022/01/10 01:56:02;;;;;;;;;;;;;;;0.81;66.67;101139.28;5080297;28;19969;-81
2022/01/10 01:58:27;;;;;;;;;;;;;;;0.81;66.66;101152.25;5079619;28;19927;-81
2022/01/10 02:00:54;;;;;;;;;;;;;;;0.83;66.61;101159.38;5079509;28;19942;-81
2022/01/10 02:03:23;;;;;;;;;;;;;;;0.87;66.56;101163.13;5079653;28;19920;-81
2022/01/10 02:05:48;;;;;;;;;;;;;;;0.89;66.49;101170.25;5076588;28;19920;-81
2022/01/10 02:08:14;;;;;;;;;;;;;;;0.88;66.45;101172.72;5079397;28;19924;-81
2022/01/10 02:10:39;;;;;;;;;;;;;;;0.85;66.42;101172.47;5079269;28;19926;-82
2022/01/10 02:13:06;;;;;;;;;;;;;;;0.86;66.37;101188.16;5078964;28;19920;-81
2022/01/10 02:15:42;;;;;;;;;;;;;;;0.89;66.32;101187.50;5079705;28;20141;-80
2022/01/10 02:18:07;;;;;;;;;;;;;;;0.96;66.25;101197.56;5079580;28;19924;-81
2022/01/10 02:20:33;;;;;;;;;;;;;;;0.99;66.15;101203.00;5095523;28;19926;-81
2022/01/10 02:23:06;;;;;;;;;;;;;;;0.94;66.12;101196.53;5097576;28;19992;-81
2022/01/10 02:25:32;;;;;;;;;;;;;;;0.90;66.08;101202.25;5097774;28;20077;-81
2022/01/10 02:27:57;;;;;;;;;;;;;;;0.87;66.05;101217.56;5098757;28;19993;-81
2022/01/10 02:30:22;;;;;;;;;;;;;;;0.91;66.00;101214.44;5096910;28;19939;-79
2022/01/10 02:33:05;;;;;;;;;;;;;;;0.87;65.99;101218.50;5100604;28;20625;-81
2022/01/10 02:35:34;;;;;;;;;;;;;;;0.83;65.96;101221.59;5095536;28;20272;-80
2022/01/10 02:38:00;;;;;;;;;;;;;;;0.87;65.94;101238.31;5095627;28;19927;-80
2022/01/10 02:40:28;;;;;;;;;;;;;;;0.85;65.90;101245.06;5095467;28;20198;-80
2022/01/10 02:43:13;;;;;;;;;;;;;;;0.87;65.84;101241.84;5094628;28;19974;-81
2022/01/10 02:45:38;;;;;;;;;;;;;;;0.98;65.79;101257.31;5095116;28;19920;-82
2022/01/10 02:48:04;;;;;;;;;;;;;;;1.03;65.74;101256.94;5095352;28;19927;-82
2022/01/10 02:50:29;;;;;;;;;;;;;;;1.08;65.68;101245.22;5094820;28;20010;-82
2022/01/10 02:53:07;;;;;;;;;;;;;;;1.11;65.65;101249.75;5095451;28;19927;-82
2022/01/10 02:55:32;;;;;;;;;;;;;;;1.16;65.62;101261.41;5095125;28;19981;-82
2022/01/10 02:57:58;;;;;;;;;;;;;;;1.18;65.59;101256.34;5095424;28;19924;-82
2022/01/10 03:00:24;;;;;;;;;;;;;;;1.25;65.56;101266.44;5093681;28;19988;-81
2022/01/10 03:02:51;;;;;;;;;;;;;;;1.25;65.55;101263.84;5094212;28;19927;-81
2022/01/10 03:05:17;;;;;;;;;;;;;;;1.31;65.51;101269.53;5094911;28;19920;-82
2022/01/10 03:07:42;;;;;;;;;;;;;;;1.32;65.50;101281.72;5095189;28;20050;-82
2022/01/10 03:10:08;;;;;;;;;;;;;;;1.36;65.47;101293.25;5095233;28;19975;-82
2022/01/10 03:12:36;;;;;;;;;;;;;;;1.39;65.45;101286.59;5095170;28;19920;-82
2022/01/10 03:15:03;;;;;;;;;;;;;;;1.46;65.43;101290.59;5095369;28;19927;-82
2022/01/10 03:17:28;;;;;;;;;;;;;;;1.44;65.43;101292.16;5094582;28;19943;-82
2022/01/10 03:19:53;;;;;;;;;;;;;;;1.48;65.42;101301.13;5094715;28;20352;-81
2022/01/10 03:22:22;;;;;;;;;;;;;;;1.55;65.41;101311.19;5095410;28;19920;-81
2022/01/10 03:24:47;;;;;;;;;;;;;;;1.54;65.40;101315.47;5099554;28;19924;-81
2022/01/10 03:27:12;;;;;;;;;;;;;;;1.57;65.39;101319.97;5097208;28;20021;-82
2022/01/10 03:29:38;;;;;;;;;;;;;;;1.60;65.39;101323.75;5094589;28;19969;-82
2022/01/10 03:32:07;;;;;;;;;;;;;;;1.64;65.39;101334.38;5094805;28;20014;-82
2022/01/10 03:34:33;;;;;;;;;;;;;;;1.65;65.39;101344.88;5094425;28;19928;-82
2022/01/10 03:36:58;;;;;;;;;;;;;;;1.64;65.41;101347.38;5095689;28;19920;-82
2022/01/10 03:39:23;;;;;;;;;;;;;;;1.61;65.42;101348.00;5077621;28;19924;-83
2022/01/10 03:41:49;;;;;;;;;;;;;;;1.62;65.42;101355.03;5094727;28;19920;-82
2022/01/10 03:44:14;;;;;;;;;;;;;;;1.63;65.42;101362.00;5094753;28;19968;-82
2022/01/10 03:46:39;;;;;;;;;;;;;;;1.65;65.40;101362.13;5094151;28;19953;-83
2022/01/10 03:49:05;;;;;;;;;;;;;;;1.67;65.40;101369.28;5095598;28;19929;-82
2022/01/10 03:51:30;;;;;;;;;;;;;;;1.69;65.39;101374.59;5093993;28;19928;-83
2022/01/10 03:53:57;;;;;;;;;;;;;;;1.71;65.37;101379.13;5093993;28;19916;-83
2022/01/10 03:56:23;;;;;;;;;;;;;;;1.75;65.36;101372.47;5094287;28;19924;-83
2022/01/10 03:58:50;;;;;;;;;;;;;;;1.82;65.34;101384.25;5094134;28;19969;-83
2022/01/10 04:01:15;;;;;;;;;;;;;;;1.80;65.35;101384.13;5095038;28;19927;-82
2022/01/10 04:03:41;;;;;;;;;;;;;;;1.82;65.37;101382.59;5094290;28;19920;-83
2022/01/10 04:06:07;;;;;;;;;;;;;;;1.79;65.36;101383.22;5094047;28;20426;-82
2022/01/10 04:08:32;;;;;;;;;;;;;;;1.78;65.37;101394.41;5093923;28;19920;-83
2022/01/10 04:10:58;;;;;;;;;;;;;;;1.82;65.36;101379.06;5095244;28;19972;-83
2022/01/10 04:13:27;;;;;;;;;;;;;;;1.85;65.34;101392.28;5094261;28;19920;-82
2022/01/10 04:15:53;;;;;;;;;;;;;;;1.87;65.33;101389.03;5094426;28;20267;-82
2022/01/10 04:18:18;;;;;;;;;;;;;;;1.89;65.32;101396.94;5095660;28;19924;-82
2022/01/10 04:20:44;;;;;;;;;;;;;;;1.91;65.31;101405.75;5098115;28;19920;-83
2022/01/10 04:23:14;;;;;;;;;;;;;;;1.88;65.30;101411.63;5094274;28;19920;-83
2022/01/10 04:25:40;;;;;;;;;;;;;;;1.92;65.30;101421.47;5093843;28;19920;-83
2022/01/10 04:28:05;;;;;;;;;;;;;;;1.96;65.28;101420.94;5094442;28;19946;-83
2022/01/10 04:30:30;;;;;;;;;;;;;;;1.93;65.30;101418.09;5093589;28;19969;-83
2022/01/10 04:32:59;;;;;;;;;;;;;;;1.95;65.28;101426.91;5093347;28;20474;-83
2022/01/10 04:35:25;;;;;;;;;;;;;;;1.95;65.28;101439.00;5076931;28;19916;-83
2022/01/10 04:37:51;;;;;;;;;;;;;;;1.94;65.30;101445.91;5077251;28;19927;-83
2022/01/10 04:40:16;;;;;;;;;;;;;;;1.95;65.28;101447.69;5094495;28;19928;-80
2022/01/10 04:42:55;;;;;;;;;;;;;;;1.95;65.26;101454.59;5095009;28;20253;-83
2022/01/10 04:45:20;;;;;;;;;;;;;;;1.94;65.28;101465.75;5058451;28;19920;-86
2022/01/10 04:47:45;;;;;;;;;;;;;;;1.98;65.27;101460.91;5075037;28;19947;-83
2022/01/10 04:52:46;;;;;;;;;;;;;;;2.01;65.25;101472.38;5075018;28;19928;-82
2022/01/10 04:55:12;;;;;;;;;;;;;;;2.06;65.24;101484.91;5075674;28;19927;-83
2022/01/10 04:57:37;;;;;;;;;;;;;;;2.08;65.22;101493.75;5094725;28;20334;-82
2022/01/10 05:00:07;;;;;;;;;;;;;;;2.12;65.21;101493.19;5076102;28;20190;-81
2022/01/10 05:02:41;;;;;;;;;;;;;;;2.13;65.24;101497.63;5076382;28;19920;-82
2022/01/10 05:05:07;;;;;;;;;;;;;;;2.13;65.28;101505.41;5076473;28;20417;-82
2022/01/10 05:07:32;;;;;;;;;;;;;;;2.12;65.30;101507.91;5079889;28;19979;-82
2022/01/10 05:09:58;;;;;;;;;;;;;;;2.17;65.31;101514.34;5080828;28;19923;-82
2022/01/10 05:12:25;;;;;;;;;;;;;;;2.19;65.32;101512.81;5080218;28;19921;-82
2022/01/10 05:14:50;;;;;;;;;;;;;;;2.24;65.34;101515.78;5079629;28;19927;-82
2022/01/10 05:17:18;;;;;;;;;;;;;;;2.24;65.35;101515.78;5078811;28;19924;-83
2022/01/10 05:19:43;;;;;;;;;;;;;;;2.24;65.39;101519.28;5080311;28;19927;-82
2022/01/10 05:22:10;;;;;;;;;;;;;;;2.27;65.41;101528.97;5079994;28;19920;-82
2022/01/10 05:24:35;;;;;;;;;;;;;;;2.27;65.46;101532.50;5079891;28;19990;-82
2022/01/10 05:27:00;;;;;;;;;;;;;;;2.28;65.49;101543.81;5097859;28;20024;-82
2022/01/10 05:29:26;;;;;;;;;;;;;;;2.29;65.53;101543.94;5079687;28;19920;-82
2022/01/10 05:31:52;;;;;;;;;;;;;;;2.22;65.58;101548.50;5080075;28;19927;-82
2022/01/10 05:34:17;;;;;;;;;;;;;;;2.20;65.65;101550.97;5079609;28;19969;-82
2022/01/10 05:36:43;;;;;;;;;;;;;;;2.15;65.70;101563.59;5097544;28;19928;-82
2022/01/10 05:39:08;;;;;;;;;;;;;;;2.12;65.73;101565.06;5079734;28;19924;-82
2022/01/10 05:41:34;;;;;;;;;;;;;;;2.08;65.77;101566.50;5079576;28;20352;-83
2022/01/10 05:43:59;;;;;;;;;;;;;;;2.08;65.78;101573.38;5097641;28;20376;-82
2022/01/10 05:46:24;;;;;;;;;;;;;;;2.03;65.81;101575.59;5079754;28;19920;-82
2022/01/10 05:48:52;;;;;;;;;;;;;;;2.04;65.83;101579.13;5079793;28;19927;-82
2022/01/10 05:51:19;;;;;;;;;;;;;;;2.00;65.84;101577.94;5079103;28;19955;-82
2022/01/10 05:53:46;;;;;;;;;;;;;;;1.87;65.89;101594.22;5097519;28;19928;-83
2022/01/10 05:56:11;;;;;;;;;;;;;;;1.89;65.92;101586.56;5097476;28;19920;-83
2022/01/10 05:58:38;;;;;;;;;;;;;;;1.88;65.90;101590.84;5079300;28;19951;-82
2022/01/10 06:01:03;;;;;;;;;;;;;;;1.89;65.93;101591.75;5079505;28;19924;-81
2022/01/10 06:03:34;;;;;;;;;;;;;;;1.86;65.94;101604.47;5097286;28;20293;-82
2022/01/10 06:05:59;;;;;;;;;;;;;;;1.93;65.94;101610.31;5079309;28;19986;-82
2022/01/10 06:08:24;;;;;;;;;;;;;;;1.94;65.95;101614.72;5080131;28;20356;-82
2022/01/10 06:10:49;;;;;;;;;;;;;;;1.96;65.92;101622.66;5079647;28;19920;-83
2022/01/10 06:13:20;;;;;;;;;;;;;;;1.97;65.94;101620.19;5079196;28;19923;-83
2022/01/10 06:15:45;;;;;;;;;;;;;;;1.99;65.95;101620.31;5079125;28;20049;-83
2022/01/10 06:18:10;;;;;;;;;;;;;;;1.94;65.97;101629.38;5077948;28;20001;-83
2022/01/10 06:20:35;;;;;;;;;;;;;;;1.99;65.95;101635.91;5079273;28;20014;-82
2022/01/10 06:23:09;;;;;;;;;;;;;;;2.00;65.95;101653.28;5097736;28;19938;-82
2022/01/10 06:25:35;;;;;;;;;;;;;;;2.00;65.95;101650.69;5076836;28;19926;-82
2022/01/10 06:28:03;;;;;;;;;;;;;;;1.98;65.95;101650.56;5078974;28;19920;-83
2022/01/10 06:30:28;;;;;;;;;;;;;;;2.03;65.95;101657.84;5078625;28;19916;-83
2022/01/10 06:33:09;;;;;;;;;;;;;;;2.04;65.95;101662.25;5096896;28;19981;-82
2022/01/10 06:35:34;;;;;;;;;;;;;;;2.03;65.97;101660.44;5064765;28;19916;-80
2022/01/10 06:37:59;;;;;;;;;;;;;;;2.08;65.97;101673.03;5058801;28;19920;-82
2022/01/10 06:40:25;;;;;;;;;;;;;;;2.06;65.98;101677.16;5076284;28;19917;-82
2022/01/10 06:42:51;;;;;;;;;;;;;;;2.04;66.00;101680.44;5076622;28;19920;-82
2022/01/10 06:45:16;;;;;;;;;;;;;;;2.05;66.01;101685.78;5075544;28;19924;-82
2022/01/10 06:47:41;;;;;;;;;;;;;;;2.03;66.04;101694.19;5078590;28;20002;-82
2022/01/10 06:50:07;;;;;;;;;;;;;;;2.04;66.06;101702.13;5096634;28;19923;-80
2022/01/10 06:52:33;;;;;;;;;;;;;;;2.05;66.11;101705.63;5078689;28;19920;-82
2022/01/10 06:54:59;;;;;;;;;;;;;;;2.10;66.12;101710.44;5075454;28;19927;-81
2022/01/10 06:57:24;;;;;;;;;;;;;;;2.08;66.14;101708.47;5078206;28;20268;-81
2022/01/10 06:59:49;;;;;;;;;;;;;;;2.11;66.17;101713.94;5078877;28;19958;-81
2022/01/10 07:02:15;;;;;;;;;;;;;;;2.12;66.20;101727.06;5098366;28;19974;-81
2022/01/10 07:04:40;;;;;;;;;;;;;;;2.12;66.25;101729.66;5078969;28;20346;-82
2022/01/10 07:07:06;;;;;;;;;;;;;;;2.12;66.31;101734.84;5078409;28;19920;-82
2022/01/10 07:09:31;;;;;;;;;;;;;;;2.17;66.38;101743.03;5095903;28;19920;-81
2022/01/10 07:12:03;;;;;;;;;;;;;;;2.16;66.44;101743.84;5077969;28;19959;-80
2022/01/10 07:14:36;;;;;;;;;;;;;;;2.16;66.50;101749.03;5077931;28;20019;-78
2022/01/10 07:17:06;;;;;;;;;;;;;;;2.31;66.42;101755.47;5092264;28;19973;-81
2022/01/10 07:19:31;;;;;;;;;;;;;;;2.35;66.43;101767.06;5083466;28;19924;-81
2022/01/10 07:22:00;;;;;;;;;;;;;;;2.31;66.52;101773.66;5077364;28;19924;-81
2022/01/10 07:24:28;;;;;;;;;;;;;;;2.35;66.57;101787.84;5077185;28;19943;-81
2022/01/10 07:26:54;;;;;;;;;;;;;;;2.34;66.67;101789.53;5095033;28;19984;-83
2022/01/10 07:29:19;;;;;;;;;;;;;;;2.37;66.84;101794.09;5086857;28;19976;-82
2022/01/10 07:31:45;;;;;;;;;;;;;;;2.40;67.00;101794.34;5094431;28;19951;-80
2022/01/10 07:34:12;;;;;;;;;;;;;;;2.38;67.23;101801.13;5094565;28;20424;-82
2022/01/10 07:36:38;;;;;;;;;;;;;;;2.36;67.47;101804.34;5093697;28;19927;-81
2022/01/10 07:39:04;;;;;;;;;;;;;;;2.32;67.67;101814.50;5094581;28;19920;-82
2022/01/10 07:41:30;;;;;;;;;;;;;;;2.32;67.91;101808.41;5095338;28;20340;-82
2022/01/10 07:43:59;;;;;;;;;;;;;;;2.36;68.14;101818.25;5093912;28;19928;-82
2022/01/10 07:46:24;;;;;;;;;;;;;;;2.37;68.43;101819.19;5077159;28;19974;-82
2022/01/10 07:48:49;;;;;;;;;;;;;;;2.37;68.79;101843.47;5076585;28;19924;-82
2022/01/10 07:51:16;;;;;;;;;;;;;;;2.39;69.20;101833.22;5076648;28;20338;-83
2022/01/10 07:53:44;;;;;;;;;;;;;;;2.43;69.58;101837.91;5076770;28;19927;-82
2022/01/10 07:56:09;;;;;;;;;;;;;;;2.47;70.10;101851.28;5095467;28;20347;-82
2022/01/10 07:58:35;;;;;;;;;;;;;;;2.42;70.75;101852.56;5092222;28;19960;-82
2022/01/10 08:01:00;;;;;;;;;;;;;;;2.43;71.74;101854.41;5093408;28;19924;-83
2022/01/10 08:03:35;;;;;;;;;;;;;;;2.49;72.21;101861.81;5093215;28;19927;-83
2022/01/10 08:06:00;;;;;;;;;;;;;;;2.47;73.04;101861.69;5092747;28;20060;-84
2022/01/10 08:08:25;;;;;;;;;;;;;;;2.49;74.52;101862.72;5076644;28;20344;-82
2022/01/10 08:10:51;;;;;;;;;;;;;;;2.53;77.28;101875.97;5077125;28;19924;-82
2022/01/10 08:13:18;;;;;;;;;;;;;;;2.60;80.28;101875.72;5076682;28;19929;-83
2022/01/10 08:15:43;;;;;;;;;;;;;;;2.59;83.78;101871.28;5076787;28;20360;-82
2022/01/10 08:18:09;;;;;;;;;;;;;;;2.60;86.53;101873.13;5077108;28;19922;-83
2022/01/10 08:20:34;;;;;;;;;;;;;;;2.61;89.41;101874.91;5058384;28;19928;-82
2022/01/10 08:23:04;;;;;;;;;;;;;;;2.60;91.90;101886.13;5056548;28;19920;-83
2022/01/10 08:25:29;;;;;;;;;;;;;;;2.65;93.98;101883.13;5053999;28;20529;-83
2022/01/10 08:27:54;;;;;;;;;;;;;;;2.64;96.48;101893.38;5056547;28;19967;-82
2022/01/10 08:30:20;;;;;;;;;;;;;;;2.68;99.57;101905.88;5055968;28;20268;-82
2022/01/10 08:32:50;;;;;;;;;;;;;;;2.65;100.00;101916.94;5056713;28;19928;-80
2022/01/10 08:35:15;;;;;;;;;;;;;;;2.66;100.00;101917.84;5056717;28;19967;-82
2022/01/10 08:37:41;;;;;;;;;;;;;;;2.70;100.00;101914.72;5056888;28;19916;-82
2022/01/10 08:40:08;;;;;;;;;;;;;;;2.72;100.00;101918.38;5056625;28;19924;-81
2022/01/10 08:42:33;;;;;;;;;;;;;;;2.72;100.00;101928.78;5055819;28;19917;-83
2022/01/10 08:44:58;;;;;;;;;;;;;;;2.76;100.00;101928.22;5056890;28;19921;-83
2022/01/10 08:47:26;;;;;;;;;;;;;;;2.81;100.00;101929.56;5040143;28;20019;-82
2022/01/10 08:49:51;;;;;;;;;;;;;;;2.83;100.00;101933.19;5043539;28;19928;-81
2022/01/10 08:52:23;;;;;;;;;;;;;;;2.85;100.00;101934.22;5058154;28;19921;-81
2022/01/10 08:54:49;;;;;;;;;;;;;;;2.87;100.00;101929.16;5053535;28;19977;-82
2022/01/10 08:57:15;;;;;;;;;;;;;;;2.94;100.00;101934.09;5056452;28;19924;-82
2022/01/10 08:59:41;;;;;;;;;;;;;;;3.00;100.00;101942.41;5056744;28;19920;-82
2022/01/10 09:02:10;;;;;;;;;;;;;;;3.00;100.00;101941.53;5056709;28;20015;-82
2022/01/10 09:04:35;;;;;;;;;;;;;;;3.08;100.00;101944.72;5059059;28;19924;-82
2022/01/10 09:07:02;;;;;;;;;;;;;;;3.12;100.00;101942.50;5060664;28;19927;-82
2022/01/10 09:09:28;;;;;;;;;;;;;;;3.18;100.00;101947.31;5081180;28;19970;-81
2022/01/10 09:11:54;;;;;;;;;;;;;;;3.20;100.00;101950.97;5084106;28;19951;-82
2022/01/10 09:14:21;;;;;;;;;;;;;;;3.21;100.00;101952.78;5057024;28;19917;-83
2022/01/10 09:16:46;;;;;;;;;;;;;;;3.30;100.00;101957.88;5056947;28;20183;-81
2022/01/10 09:19:12;;;;;;;;;;;;;;;3.30;100.00;101950.94;5061341;28;19927;-82
2022/01/10 09:21:37;;;;;;;;;;;;;;;3.39;100.00;101953.41;5080051;28;19987;-81
2022/01/10 09:24:03;;;;;;;;;;;;;;;3.41;100.00;101946.63;5081649;28;19928;-82
2022/01/10 09:26:29;;;;;;;;;;;;;;;3.42;100.00;101948.47;5082234;28;19924;-81
2022/01/10 09:28:55;;;;;;;;;;;;;;;3.61;100.00;101944.75;5095599;28;19937;-83
2022/01/10 09:31:22;;;;;;;;;;;;;;;3.65;100.00;101949.41;5078072;28;19970;-82
2022/01/10 09:33:53;;;;;;;;;;;;;;;3.71;100.00;101953.44;5075440;28;19924;-83
2022/01/10 09:36:18;;;;;;;;;;;;;;;3.81;100.00;101943.75;5074793;28;19921;-82
2022/01/10 09:38:43;;;;;;;;;;;;;;;3.81;100.00;101947.28;5077278;28;19975;-82
2022/01/10 09:41:08;;;;;;;;;;;;;;;3.92;100.00;101953.34;5082598;28;19932;-83
2022/01/10 09:43:34;;;;;;;;;;;;;;;3.92;100.00;101945.53;5057820;28;19921;-83
2022/01/10 09:46:00;;;;;;;;;;;;;;;3.96;100.00;101958.00;5069719;28;19928;-82
2022/01/10 09:48:25;;;;;;;;;;;;;;;3.95;100.00;101957.13;5069442;28;19928;-83
2022/01/10 09:50:51;;;;;;;;;;;;;;;3.89;100.00;101940.97;5069815;28;19921;-81
2022/01/10 09:53:24;;;;;;;;;;;;;;;3.98;100.00;101948.63;5075325;28;19927;-83
2022/01/10 09:55:49;;;;;;;;;;;;;;;3.98;100.00;101945.09;5077846;28;19966;-82
2022/01/10 09:58:15;;;;;;;;;;;;;;;4.03;100.00;101935.97;5075919;28;19924;-82
2022/01/10 10:00:45;;;;;;;;;;;;;;;4.05;100.00;101939.59;5076493;28;19921;-82
2022/01/10 10:03:11;;;;;;;;;;;;;;;4.06;100.00;101942.34;5077129;28;19927;-83
2022/01/10 10:05:36;;;;;;;;;;;;;;;4.11;100.00;101940.09;5076423;28;19928;-81
2022/01/10 10:08:02;;;;;;;;;;;;;;;4.20;100.00;101940.81;5078034;28;20031;-82
2022/01/10 10:10:31;;;;;;;;;;;;;;;4.25;100.00;101928.16;5077813;28;20577;-83
2022/01/10 10:12:57;;;;;;;;;;;;;;;4.38;100.00;101935.22;5076005;28;19947;-84
2022/01/10 10:15:30;;;;;;;;;;;;;;;4.44;100.00;101931.44;5075830;28;20407;-84
2022/01/10 10:18:09;;;;;;;;;;;;;;;4.60;100.00;101935.19;5076042;28;19928;-83
2022/01/10 10:20:34;;;;;;;;;;;;;;;4.57;100.00;101942.78;5075823;28;19947;-83
2022/01/10 10:23:05;;;;;;;;;;;;;;;4.66;100.00;101949.66;5076056;28;20242;-84
2022/01/10 10:25:33;;;;;;;;;;;;;;;4.78;100.00;101943.53;5072820;28;19920;-83
2022/01/10 10:27:58;;;;;;;;;;;;;;;4.77;100.00;101950.47;5076932;28;20345;-83
2022/01/10 10:30:28;;;;;;;;;;;;;;;4.89;100.00;101953.09;5076264;28;19923;-83
2022/01/10 10:33:15;;;;;;;;;;;;;;;4.96;100.00;101955.38;5076503;28;19920;-83
2022/01/10 10:36:38;;;;;;;;;;;;;;;4.92;100.00;101949.81;5055142;28;20341;-83
2022/01/10 10:39:45;;;;;;;;;;;;;;;5.02;100.00;101955.84;5053551;28;19947;-83
2022/01/10 10:46:01;;;;;;;;;;;;;;;5.06;100.00;101984.81;5035805;28;20016;-83
2022/01/10 10:52:21;;;;;;;;;;;;;;;5.12;100.00;101990.50;5035063;28;19963;-83
2022/01/10 10:58:48;;;;;;;;;;;;;;;5.17;100.00;102004.81;4957096;29;19928;-82
2022/01/10 11:01:51;;;;;;;;;;;;;;;5.17;100.00;102008.34;4937731;29;19990;-82
2022/01/10 11:11:15;;;;;;;;;;;;;;;5.17;100.00;102020.47;4899263;29;19930;-82
2022/01/10 11:17:41;;;;;;;;;;;;;;;5.27;100.00;102038.69;4955059;29;20053;-84
2022/01/10 11:34:58;;;;;;;;;;;;;;;4.95;100.00;102065.81;4813465;29;20400;-81
2022/01/10 11:37:23;;;;;;;;;;;;;;;5.00;100.00;102072.31;4852842;29;19928;-82
2022/01/10 11:39:49;;;;;;;;;;;;;;;5.06;100.00;102082.31;4965161;28;19922;-83
2022/01/10 11:42:26;;;;;;;;;;;;;;;5.10;100.00;102088.72;4979204;28;20000;-83
2022/01/10 11:45:11;;;;;;;;;;;;;;;5.21;100.00;102087.81;5011762;28;19931;-81
2022/01/10 11:47:55;;;;;;;;;;;;;;;5.30;100.00;102087.59;5036138;28;20444;-82
2022/01/10 11:50:28;;;;;;;;;;;;;;;5.27;100.00;102088.31;5036636;28;19920;-82
2022/01/10 11:53:00;;;;;;;;;;;;;;;5.39;100.00;102094.47;5069859;28;19956;-81
2022/01/10 11:55:41;;;;;;;;;;;;;;;5.44;100.00;102096.50;5075729;28;20420;-81
2022/01/10 11:58:16;;;;;;;;;;;;;;;5.39;100.00;102094.47;5073489;28;19928;-83
2022/01/10 12:00:42;;;;;;;;;;;;;;;5.47;100.00;102107.19;5075139;28;19947;-81
2022/01/10 12:03:08;;;;;;;;;;;;;;;5.52;100.00;102111.09;5075317;28;20344;-81
2022/01/10 12:05:36;;;;;;;;;;;;;;;5.52;100.00;102114.59;5077764;28;19942;-83
2022/01/10 12:08:09;;;;;;;;;;;;;;;5.63;100.00;102120.66;5093012;28;19929;-83
2022/01/10 12:10:34;;;;;;;;;;;;;;;5.70;100.00;102120.34;5076756;28;20534;-81
2022/01/10 12:13:02;;;;;;;;;;;;;;;5.68;100.00;102121.91;5075918;28;19921;-81
2022/01/10 12:15:29;;;;;;;;;;;;;;;5.70;100.00;102124.63;5074868;28;20454;-82
2022/01/10 12:17:54;;;;;;;;;;;;;;;5.65;100.00;102126.88;5076174;28;19927;-81
2022/01/10 12:20:20;;;;;;;;;;;;;;;5.71;100.00;102129.97;5078872;28;19920;-81
2022/01/10 12:22:45;;;;;;;;;;;;;;;5.80;100.00;102135.00;5080667;28;19920;-83
2022/01/10 12:25:11;;;;;;;;;;;;;;;5.91;100.00;102144.56;5080300;28;19920;-81
2022/01/10 12:27:36;;;;;;;;;;;;;;;5.86;100.00;102142.41;5078557;28;19924;-82
2022/01/10 12:30:03;;;;;;;;;;;;;;;5.82;100.00;102149.09;5097127;28;19959;-83
2022/01/10 12:32:32;;;;;;;;;;;;;;;5.80;100.00;102149.78;5076565;28;19924;-82
2022/01/10 12:34:57;;;;;;;;;;;;;;;5.88;100.00;102143.44;5078186;28;19924;-83
2022/01/10 12:37:26;;;;;;;;;;;;;;;5.86;100.00;102158.09;5080314;28;20415;-83
2022/01/10 12:39:51;;;;;;;;;;;;;;;5.96;100.00;102164.91;5078389;28;19920;-82
2022/01/10 12:42:18;;;;;;;;;;;;;;;6.02;100.00;102165.41;5077446;28;19931;-81
2022/01/10 12:44:44;;;;;;;;;;;;;;;6.02;100.00;102175.88;5076778;28;19927;-80
2022/01/10 12:47:09;;;;;;;;;;;;;;;6.01;100.00;102176.66;5076026;28;20006;-81
2022/01/10 12:49:35;;;;;;;;;;;;;;;5.86;100.00;102173.78;5077643;28;20015;-83
2022/01/10 12:52:03;;;;;;;;;;;;;;;5.93;100.00;102189.13;5096106;28;19920;-83
2022/01/10 12:54:29;;;;;;;;;;;;;;;5.92;100.00;102189.94;5095234;28;19920;-82
2022/01/10 12:56:55;;;;;;;;;;;;;;;6.01;100.00;102194.97;5095367;28;19923;-83
2022/01/10 12:59:37;;;;;;;;;;;;;;;;;;;;;
2022/01/10 13:02:12;;;;;;;;;;;;;;;5.99;100.00;102188.72;5085804;22;19929;-84
2022/01/10 13:04:40;;;;;;;;;;;;;;;6.04;100.00;102190.88;5057244;28;19920;-82
2022/01/10 13:07:23;;;;;;;;;;;;;;;6.14;100.00;102195.13;5056328;28;19925;-83
2022/01/10 13:09:49;;;;;;;;;;;;;;;6.05;100.00;102203.16;5061525;28;20283;-82
2022/01/10 13:12:26;;;;;;;;;;;;;;;6.02;100.00;102202.94;5057234;28;19920;-82
2022/01/10 13:14:52;;;;;;;;;;;;;;;6.00;100.00;102214.09;5056678;28;19920;-82
2022/01/10 13:17:21;;;;;;;;;;;;;;;5.97;100.00;102211.25;5056361;28;19928;-82
2022/01/10 13:19:57;;;;;;;;;;;;;;;5.80;100.00;102220.38;5061325;28;19924;-82
2022/01/10 13:22:29;;;;;;;;;;;;;;;5.64;100.00;102223.47;5076776;28;19927;-83
2022/01/10 13:24:56;;;;;;;;;;;;;;;5.56;100.00;102230.72;5057493;28;19966;-81
2022/01/10 13:27:24;;;;;;;;;;;;;;;5.46;100.00;102226.47;5059093;28;19970;-83
2022/01/10 13:29:51;;;;;;;;;;;;;;;5.37;100.00;102225.75;5061702;28;19921;-82
2022/01/10 13:32:18;;;;;;;;;;;;;;;5.28;100.00;102236.38;5059950;28;19984;-83
2022/01/10 13:34:44;;;;;;;;;;;;;;;5.22;100.00;102238.53;5061128;28;19927;-83
2022/01/10 13:37:10;;;;;;;;;;;;;;;5.14;100.00;102234.34;5061846;28;19921;-83
2022/01/10 13:39:35;;;;;;;;;;;;;;;5.11;100.00;102227.22;5061884;28;19946;-82